createdAt,value
2022-10-01T00:02:08.222Z,97314.13
2022-10-01T00:04:37.813Z,97310.13
2022-10-01T00:07:09.589Z,97302.13
2022-10-01T00:09:37.534Z,97300.75
2022-10-01T00:12:05.595Z,97301.94
2022-10-01T00:14:33.427Z,97299.72
2022-10-01T00:17:01.246Z,97298.63
2022-10-01T00:19:29.223Z,97296.13
2022-10-01T00:21:56.946Z,97297.16
2022-10-01T00:24:24.823Z,97302.22
2022-10-01T00:26:53.218Z,97307.56
2022-10-01T00:29:21.049Z,97297.50
2022-10-01T00:31:49.210Z,97298.16
2022-10-01T00:34:17.019Z,97290.72
2022-10-01T00:36:44.801Z,97302.38
2022-10-01T00:39:13.019Z,97303.69
2022-10-01T00:41:42.196Z,97304.53
2022-10-01T00:44:34.596Z,97314.38
2022-10-01T00:47:40.122Z,97320.09
2022-10-01T00:50:16.505Z,97329.22
2022-10-01T00:52:52.195Z,97325.41
2022-10-01T00:55:26.848Z,97325.97
2022-10-01T00:57:56.571Z,97323.75
2022-10-01T01:00:25.216Z,97321.53
2022-10-01T01:02:53.133Z,97318.41
2022-10-01T01:05:21.640Z,97314.91
2022-10-01T01:07:52.782Z,97304.69
2022-10-01T01:10:34.927Z,97304.34
2022-10-01T01:13:23.751Z,97304.34
2022-10-01T01:16:00.303Z,97295.31
2022-10-01T01:18:45.997Z,97296.50
2022-10-01T01:21:38.911Z,97295.31
2022-10-01T01:24:39.858Z,97295.13
2022-10-01T01:27:37.718Z,97290.59
2022-10-01T01:30:14.676Z,97287.75
2022-10-01T01:33:03.335Z,97282.78
2022-10-01T01:35:59.264Z,97269.63
2022-10-01T01:38:40.518Z,97269.41
2022-10-01T01:41:10.591Z,97263.91
2022-10-01T01:43:44.760Z,97258.19
2022-10-01T01:46:17.715Z,97251.00
2022-10-01T01:48:51.005Z,97257.63
2022-10-01T01:51:49.120Z,97251.94
2022-10-01T01:54:18.667Z,97252.56
2022-10-01T01:56:48.218Z,97249.44
2022-10-01T01:59:19.694Z,97245.56
2022-10-01T02:01:49.331Z,97244.38
2022-10-01T02:04:27.646Z,97241.25
2022-10-01T02:07:28.828Z,97239.03
2022-10-01T02:10:28.194Z,97233.94
2022-10-01T02:13:51.629Z,97234.53
2022-10-01T02:16:54.073Z,97238.94
2022-10-01T02:19:44.507Z,97226.41
2022-10-01T02:22:20.081Z,97225.00
2022-10-01T02:24:53.709Z,97229.72
2022-10-01T02:27:26.101Z,97224.53
2022-10-01T02:30:02.503Z,97224.53
2022-10-01T02:32:31.608Z,97228.06
2022-10-01T02:35:01.663Z,97218.03
2022-10-01T02:37:29.782Z,97213.31
2022-10-01T02:40:00.053Z,97222.50
2022-10-01T02:42:30.434Z,97216.63
2022-10-01T02:45:02.507Z,97218.91
2022-10-01T02:47:41.493Z,97220.75
2022-10-01T02:50:10.001Z,97209.88
2022-10-01T02:52:45.760Z,97209.72
2022-10-01T02:55:35.987Z,97212.84
2022-10-01T02:58:04.350Z,97218.38
2022-10-01T03:00:32.466Z,97214.66
2022-10-01T03:03:00.411Z,97211.34
2022-10-01T03:05:28.224Z,97204.16
2022-10-01T03:07:56.037Z,97203.50
2022-10-01T03:10:23.893Z,97215.22
2022-10-01T03:12:51.638Z,97211.91
2022-10-01T03:15:20.906Z,97206.75
2022-10-01T03:17:52.862Z,97199.56
2022-10-01T03:20:20.996Z,97198.75
2022-10-01T03:22:48.787Z,97189.50
2022-10-01T03:25:17.202Z,97189.31
2022-10-01T03:27:46.171Z,97188.69
2022-10-01T03:30:14.974Z,97187.47
2022-10-01T03:32:42.722Z,97187.28
2022-10-01T03:35:10.604Z,97197.97
2022-10-01T03:37:38.392Z,97187.69
2022-10-01T03:40:07.069Z,97187.88
2022-10-01T03:42:34.891Z,97178.47
2022-10-01T03:45:02.653Z,97171.06
2022-10-01T03:47:30.471Z,97163.25
2022-10-01T03:49:59.378Z,97164.06
2022-10-01T03:52:27.166Z,97154.41
2022-10-01T03:54:54.911Z,97146.66
2022-10-01T03:57:22.644Z,97155.31
2022-10-01T03:59:50.614Z,97155.94
2022-10-01T04:02:18.408Z,97166.00
2022-10-01T04:04:46.403Z,97155.94
2022-10-01T04:07:14.214Z,97156.41
2022-10-01T04:09:41.988Z,97148.16
2022-10-01T04:12:09.803Z,97141.63
2022-10-01T04:14:37.596Z,97142.63
2022-10-01T04:17:05.375Z,97140.59
2022-10-01T04:19:33.173Z,97142.31
2022-10-01T04:22:00.898Z,97139.31
2022-10-01T04:24:28.658Z,97143.44
2022-10-01T04:26:56.391Z,97139.78
2022-10-01T04:29:24.206Z,97131.59
2022-10-01T04:31:53.557Z,97138.22
2022-10-01T04:34:41.390Z,97139.50
2022-10-01T04:37:09.170Z,97132.09
2022-10-01T04:39:36.981Z,97128.53
2022-10-01T04:42:04.815Z,97135.16
2022-10-01T04:44:32.620Z,97131.47
2022-10-01T04:47:00.505Z,97130.56
2022-10-01T04:49:28.311Z,97130.56
2022-10-01T04:51:56.073Z,97126.72
2022-10-01T04:54:23.836Z,97133.31
2022-10-01T04:56:51.605Z,97127.53
2022-10-01T04:59:19.690Z,97116.00
2022-10-01T05:01:47.499Z,97129.81
2022-10-01T05:04:15.321Z,97136.00
2022-10-01T05:06:43.067Z,97135.00
2022-10-01T05:09:10.864Z,97132.25
2022-10-01T05:11:39.169Z,97138.66
2022-10-01T05:14:06.960Z,97128.44
2022-10-01T05:16:34.756Z,97129.47
2022-10-01T05:19:02.559Z,97129.75
2022-10-01T05:21:31.304Z,97124.22
2022-10-01T05:23:59.202Z,97122.59
2022-10-01T05:26:27.239Z,97119.94
2022-10-01T05:28:55.281Z,97119.53
2022-10-01T05:31:23.890Z,97117.31
2022-10-01T05:33:51.685Z,97120.59
2022-10-01T05:36:19.488Z,97120.88
2022-10-01T05:38:52.410Z,97120.69
2022-10-01T05:41:20.472Z,97123.38
2022-10-01T05:43:49.766Z,97122.38
2022-10-01T05:46:18.177Z,97116.84
2022-10-01T05:48:51.310Z,97104.28
2022-10-01T05:51:19.455Z,97099.56
2022-10-01T05:53:50.485Z,97093.78
2022-10-01T05:56:18.728Z,97087.19
2022-10-01T05:58:46.885Z,97090.50
2022-10-01T06:01:14.873Z,97078.34
2022-10-01T06:03:44.076Z,97072.81
2022-10-01T06:06:11.799Z,97078.78
2022-10-01T06:08:39.576Z,97082.91
2022-10-01T06:11:07.337Z,97072.03
2022-10-01T06:13:36.367Z,97069.53
2022-10-01T06:16:04.257Z,97072.84
2022-10-01T06:18:32.107Z,97058.44
2022-10-01T06:20:59.933Z,97066.28
2022-10-01T06:23:28.473Z,97067.28
2022-10-01T06:25:56.309Z,97067.91
2022-10-01T06:28:24.153Z,97063.19
2022-10-01T06:30:51.946Z,97056.00
2022-10-01T06:33:20.091Z,97072.91
2022-10-01T06:35:51.131Z,97073.72
2022-10-01T06:38:21.632Z,97069.19
2022-10-01T06:41:00.884Z,97070.41
2022-10-01T06:43:31.302Z,97061.75
2022-10-01T06:46:03.766Z,97061.75
2022-10-01T06:48:32.983Z,97068.72
2022-10-01T06:51:00.790Z,97065.84
2022-10-01T06:53:28.909Z,97070.16
2022-10-01T06:55:57.089Z,97069.97
2022-10-01T06:58:26.587Z,97070.78
2022-10-01T07:01:03.904Z,97073.28
2022-10-01T07:03:32.147Z,97062.56
2022-10-01T07:06:05.276Z,97070.78
2022-10-01T07:08:33.510Z,97058.03
2022-10-01T07:11:05.070Z,97054.72
2022-10-01T07:13:32.905Z,97053.28
2022-10-01T07:16:04.463Z,97055.16
2022-10-01T07:18:32.347Z,97047.75
2022-10-01T07:21:00.168Z,97045.06
2022-10-01T07:23:28.081Z,97042.59
2022-10-01T07:25:55.864Z,97038.91
2022-10-01T07:28:25.759Z,97032.31
2022-10-01T07:31:03.795Z,97035.81
2022-10-01T07:33:31.726Z,97041.34
2022-10-01T07:36:05.636Z,97035.56
2022-10-01T07:38:33.976Z,97043.03
2022-10-01T07:41:05.068Z,97053.28
2022-10-01T07:43:34.683Z,97058.00
2022-10-01T07:46:05.063Z,97053.09
2022-10-01T07:48:32.903Z,97060.09
2022-10-01T07:51:00.732Z,97058.28
2022-10-01T07:53:28.615Z,97051.91
2022-10-01T07:55:56.861Z,97045.97
2022-10-01T07:58:24.802Z,97044.28
2022-10-01T08:00:58.188Z,97052.13
2022-10-01T08:03:26.087Z,97052.75
2022-10-01T08:05:54.679Z,97044.59
2022-10-01T08:08:22.919Z,97052.44
2022-10-01T08:10:50.726Z,97057.97
2022-10-01T08:13:18.985Z,97061.84
2022-10-01T08:15:50.686Z,97057.72
2022-10-01T08:18:18.527Z,97069.38
2022-10-01T08:20:46.688Z,97068.16
2022-10-01T08:23:17.266Z,97068.63
2022-10-01T08:25:47.776Z,97072.69
2022-10-01T08:28:16.565Z,97073.16
2022-10-01T08:30:44.515Z,97089.75
2022-10-01T08:33:14.337Z,97092.00
2022-10-01T08:35:43.826Z,97089.06
2022-10-01T08:38:12.431Z,97091.13
2022-10-01T08:40:50.690Z,97094.66
2022-10-01T08:43:40.160Z,97089.06
2022-10-01T08:46:19.176Z,97093.00
2022-10-01T08:49:12.897Z,97099.50
2022-10-01T08:52:03.591Z,97099.59
2022-10-01T08:54:39.842Z,97100.84
2022-10-01T08:57:25.458Z,97100.47
2022-10-01T08:59:57.845Z,97097.00
2022-10-01T09:02:39.363Z,97093.25
2022-10-01T09:05:36.071Z,97089.41
2022-10-01T09:08:43.847Z,97099.13
2022-10-01T09:12:05.855Z,97086.81
2022-10-01T09:14:39.388Z,97083.34
2022-10-01T09:17:43.796Z,97082.16
2022-10-01T09:20:53.628Z,97084.03
2022-10-01T09:23:45.332Z,97091.53
2022-10-01T09:26:13.396Z,97077.53
2022-10-01T09:28:41.912Z,97083.31
2022-10-01T09:31:26.617Z,97089.28
2022-10-01T09:34:19.465Z,97099.59
2022-10-01T09:37:22.026Z,97104.94
2022-10-01T09:40:23.273Z,97103.09
2022-10-01T09:42:52.208Z,97102.41
2022-10-01T09:45:21.266Z,97110.84
2022-10-01T09:47:55.121Z,97114.41
2022-10-01T09:50:31.172Z,97116.09
2022-10-01T09:53:01.356Z,97112.47
2022-10-01T09:55:42.373Z,97111.38
2022-10-01T09:58:24.865Z,97106.31
2022-10-01T10:00:55.010Z,97096.03
2022-10-01T10:03:32.068Z,97095.69
2022-10-01T10:06:01.187Z,97089.34
2022-10-01T10:08:33.926Z,97088.94
2022-10-01T10:11:11.885Z,97081.75
2022-10-01T10:13:56.194Z,97081.34
2022-10-01T10:16:31.703Z,97079.28
2022-10-01T10:19:26.522Z,97075.16
2022-10-01T10:21:57.530Z,97078.03
2022-10-01T10:24:35.243Z,97069.16
2022-10-01T10:27:20.301Z,97058.03
2022-10-01T10:29:48.233Z,97068.75
2022-10-01T10:32:26.013Z,97084.25
2022-10-01T10:35:02.948Z,97084.66
2022-10-01T10:37:37.078Z,97090.25
2022-10-01T10:40:08.319Z,97091.91
2022-10-01T10:42:38.957Z,97089.63
2022-10-01T10:45:18.227Z,97089.44
2022-10-01T10:47:51.402Z,97087.41
2022-10-01T10:50:41.200Z,97068.84
2022-10-01T10:53:20.148Z,97073.34
2022-10-01T10:56:03.757Z,97068.41
2022-10-01T10:58:42.405Z,97077.50
2022-10-01T11:01:18.019Z,97078.75
2022-10-01T11:03:59.959Z,97080.84
2022-10-01T11:06:28.137Z,97066.38
2022-10-01T11:09:07.311Z,97078.94
2022-10-01T11:12:00.898Z,97074.00
2022-10-01T11:14:37.476Z,97067.16
2022-10-01T11:17:56.961Z,97067.97
2022-10-01T11:20:52.038Z,97077.72
2022-10-01T11:24:02.335Z,97079.16
2022-10-01T11:27:11.289Z,97082.88
2022-10-01T11:29:54.084Z,97086.38
2022-10-01T11:32:47.176Z,97084.91
2022-10-01T11:36:06.099Z,97103.31
2022-10-01T11:38:42.481Z,97097.94
2022-10-01T11:42:06.428Z,97111.50
2022-10-01T11:45:04.534Z,97110.72
2022-10-01T11:47:47.375Z,97105.16
2022-10-01T11:50:25.578Z,97118.97
2022-10-01T11:53:15.328Z,97125.16
2022-10-01T11:56:25.571Z,97122.91
2022-10-01T11:58:57.386Z,97117.75
2022-10-01T12:01:45.080Z,97123.50
2022-10-01T12:04:45.892Z,97121.06
2022-10-01T12:07:55.116Z,97118.59
2022-10-01T12:11:01.268Z,97109.50
2022-10-01T12:13:38.412Z,97113.63
2022-10-01T12:16:40.718Z,97120.63
2022-10-01T12:19:25.101Z,97125.34
2022-10-01T12:22:09.871Z,97132.59
2022-10-01T12:24:43.332Z,97128.25
2022-10-01T12:27:39.936Z,97138.56
2022-10-01T12:30:24.788Z,97133.38
2022-10-01T12:33:44.470Z,97139.16
2022-10-01T12:36:56.553Z,97149.66
2022-10-01T12:39:48.153Z,97144.47
2022-10-01T12:42:21.821Z,97144.06
2022-10-01T12:45:21.193Z,97145.69
2022-10-01T12:48:11.477Z,97154.75
2022-10-01T12:51:06.976Z,97150.00
2022-10-01T12:54:03.743Z,97151.44
2022-10-01T12:56:43.318Z,97155.50
2022-10-01T12:59:44.540Z,97145.50
2022-10-01T13:03:11.871Z,97156.97
2022-10-01T13:06:07.264Z,97158.53
2022-10-01T13:09:11.249Z,97165.78
2022-10-01T13:11:57.164Z,97161.09
2022-10-01T13:14:25.598Z,97164.59
2022-10-01T13:17:25.821Z,97165.88
2022-10-01T13:20:09.057Z,97168.28
2022-10-01T13:23:16.199Z,97169.63
2022-10-01T13:25:50.714Z,97159.41
2022-10-01T13:28:32.788Z,97162.47
2022-10-01T13:31:11.421Z,97158.13
2022-10-01T13:33:39.487Z,97160.09
2022-10-01T13:36:09.645Z,97158.47
2022-10-01T13:38:47.690Z,97171.03
2022-10-01T13:41:22.952Z,97154.56
2022-10-01T13:44:04.944Z,97152.53
2022-10-01T13:46:47.744Z,97155.03
2022-10-01T13:49:36.489Z,97142.31
2022-10-01T13:52:06.085Z,97140.63
2022-10-01T13:54:46.596Z,97158.28
2022-10-01T13:57:32.134Z,97169.69
2022-10-01T14:00:22.999Z,97166.63
2022-10-01T14:03:38.366Z,97154.91
2022-10-01T14:06:24.523Z,97157.75
2022-10-01T14:09:12.888Z,97169.34
2022-10-01T14:12:05.558Z,97166.59
2022-10-01T14:14:59.343Z,97174.56
2022-10-01T14:17:31.665Z,97171.63
2022-10-01T14:20:01.716Z,97180.91
2022-10-01T14:22:51.247Z,97170.41
2022-10-01T14:26:03.245Z,97178.03
2022-10-01T14:28:59.210Z,97202.16
2022-10-01T14:31:38.956Z,97186.28
2022-10-01T14:34:44.354Z,97182.97
2022-10-01T14:37:17.329Z,97208.03
2022-10-01T14:39:45.518Z,97202.22
2022-10-01T14:42:18.222Z,97199.75
2022-10-01T14:44:47.537Z,97195.19
2022-10-01T14:47:27.878Z,97193.91
2022-10-01T14:49:55.845Z,97184.47
2022-10-01T14:52:32.124Z,97193.72
2022-10-01T14:55:05.319Z,97201.19
2022-10-01T14:57:50.087Z,97208.78
2022-10-01T15:00:22.177Z,97209.69
2022-10-01T15:03:18.248Z,97217.19
2022-10-01T15:05:49.138Z,97198.69
2022-10-01T15:08:35.695Z,97211.28
2022-10-01T15:11:10.315Z,97219.56
2022-10-01T15:13:41.976Z,97211.56
2022-10-01T15:16:23.304Z,97218.28
2022-10-01T15:19:23.016Z,97208.31
2022-10-01T15:21:56.376Z,97207.91
2022-10-01T15:24:47.610Z,97216.94
2022-10-01T15:27:20.104Z,97217.03
2022-10-01T15:29:56.357Z,97226.41
2022-10-01T15:32:25.379Z,97213.69
2022-10-01T15:34:57.955Z,97208.00
2022-10-01T15:37:35.967Z,97208.97
2022-10-01T15:40:09.803Z,97217.06
2022-10-01T15:42:37.794Z,97219.25
2022-10-01T15:45:08.521Z,97214.56
2022-10-01T15:47:38.641Z,97225.22
2022-10-01T15:50:14.509Z,97226.63
2022-10-01T15:52:51.636Z,97233.28
2022-10-01T15:55:33.649Z,97238.00
2022-10-01T15:58:10.423Z,97235.78
2022-10-01T16:00:48.766Z,97235.78
2022-10-01T16:03:41.726Z,97244.88
2022-10-01T16:06:28.950Z,97253.41
2022-10-01T16:09:20.717Z,97242.66
2022-10-01T16:12:10.141Z,97249.09
2022-10-01T16:15:11.663Z,97257.44
2022-10-01T16:17:39.700Z,97258.31
2022-10-01T16:20:16.672Z,97254.81
2022-10-01T16:22:44.560Z,97250.38
2022-10-01T16:25:19.463Z,97266.75
2022-10-01T16:27:56.022Z,97273.25
2022-10-01T16:30:28.471Z,97270.34
2022-10-01T16:32:59.240Z,97280.69
2022-10-01T16:35:29.911Z,97277.34
2022-10-01T16:37:58.700Z,97270.34
2022-10-01T16:40:32.825Z,97282.13
2022-10-01T16:43:02.887Z,97290.81
2022-10-01T16:45:37.969Z,97282.22
2022-10-01T16:48:17.779Z,97287.97
2022-10-01T16:50:46.923Z,97284.03
2022-10-01T16:53:18.253Z,97288.16
2022-10-01T16:55:46.888Z,97297.47
2022-10-01T16:58:15.738Z,97298.28
2022-10-01T17:00:43.696Z,97303.34
2022-10-01T17:03:29.296Z,97304.31
2022-10-01T17:05:57.128Z,97300.19
2022-10-01T17:08:24.905Z,97313.03
2022-10-01T17:11:00.046Z,97323.00
2022-10-01T17:13:32.656Z,97333.91
2022-10-01T17:16:02.074Z,97332.53
2022-10-01T17:18:29.856Z,97333.72
2022-10-01T17:20:57.928Z,97338.09
2022-10-01T17:23:25.656Z,97347.19
2022-10-01T17:25:53.479Z,97350.50
2022-10-01T17:28:21.749Z,97349.66
2022-10-01T17:30:50.031Z,97349.25
2022-10-01T17:33:19.606Z,97351.72
2022-10-01T17:35:51.909Z,97351.94
2022-10-01T17:38:21.049Z,97363.50
2022-10-01T17:40:54.240Z,97368.97
2022-10-01T17:43:24.570Z,97363.34
2022-10-01T17:45:58.154Z,97370.97
2022-10-01T17:48:28.314Z,97379.03
2022-10-01T17:51:22.332Z,97380.72
2022-10-01T17:53:50.139Z,97394.41
2022-10-01T17:56:19.174Z,97400.41
2022-10-01T17:58:47.207Z,97412.19
2022-10-01T18:01:19.941Z,97404.31
2022-10-01T18:03:48.199Z,97405.94
2022-10-01T18:06:16.350Z,97412.59
2022-10-01T18:08:55.076Z,97409.50
2022-10-01T18:11:26.285Z,97422.53
2022-10-01T18:13:54.079Z,97416.09
2022-10-01T18:16:22.628Z,97432.25
2022-10-01T18:21:47.739Z,97444.25
2022-10-01T18:24:16.810Z,97439.50
2022-10-01T18:26:45.891Z,97454.19
2022-10-01T18:29:21.853Z,97459.78
2022-10-01T18:32:09.235Z,97479.66
2022-10-01T18:34:54.628Z,97476.13
2022-10-01T18:37:41.357Z,97475.94
2022-10-01T18:40:21.387Z,97475.91
2022-10-01T18:43:00.484Z,97490.13
2022-10-01T18:46:28.777Z,97490.13
2022-10-01T18:49:43.232Z,97493.63
2022-10-01T18:52:17.817Z,97499.00
2022-10-01T18:55:20.992Z,97494.03
2022-10-01T18:57:58.417Z,97502.91
2022-10-01T19:00:42.377Z,97496.31
2022-10-01T19:03:43.990Z,97504.38
2022-10-01T19:06:40.901Z,97504.19
2022-10-01T19:09:43.956Z,97506.53
2022-10-01T19:13:02.695Z,97504.00
2022-10-01T19:15:51.953Z,97503.03
2022-10-01T19:18:40.980Z,97521.97
2022-10-01T19:21:21.584Z,97501.97
2022-10-01T19:24:15.948Z,97520.91
2022-10-01T19:26:43.525Z,97531.53
2022-10-01T19:29:55.033Z,97547.28
2022-10-01T19:32:39.652Z,97551.16
2022-10-01T19:35:16.017Z,97553.59
2022-10-01T19:38:01.396Z,97562.75
2022-10-01T19:41:22.407Z,97576.56
2022-10-01T19:44:02.868Z,97566.50
2022-10-01T19:46:43.748Z,97572.94
2022-10-01T19:49:37.256Z,97591.25
2022-10-01T19:52:13.611Z,97594.38
2022-10-01T19:54:54.300Z,97601.38
2022-10-01T19:57:27.552Z,97601.75
2022-10-01T20:00:07.712Z,97595.09
2022-10-01T20:02:45.248Z,97600.56
2022-10-01T20:05:32.066Z,97603.78
2022-10-01T20:08:36.273Z,97612.75
2022-10-01T20:11:37.774Z,97616.91
2022-10-01T20:15:00.495Z,97632.97
2022-10-01T20:17:50.310Z,97632.25
2022-10-01T20:20:44.849Z,97630.72
2022-10-01T20:23:21.608Z,97655.34
2022-10-01T20:26:45.383Z,97649.00
2022-10-01T20:29:20.236Z,97649.19
2022-10-01T20:32:29.394Z,97655.91
2022-10-01T20:35:26.396Z,97671.34
2022-10-01T20:37:56.916Z,97669.31
2022-10-01T20:40:49.936Z,97669.56
2022-10-01T20:43:31.317Z,97671.97
2022-10-01T20:46:14.420Z,97673.72
2022-10-01T20:48:53.581Z,97673.97
2022-10-01T20:51:48.163Z,97681.00
2022-10-01T20:54:23.163Z,97686.13
2022-10-01T20:57:29.059Z,97679.34
2022-10-01T21:00:18.860Z,97684.28
2022-10-01T21:03:18.000Z,97680.00
2022-10-01T21:06:17.093Z,97688.75
2022-10-01T21:08:51.884Z,97682.31
2022-10-01T21:11:28.212Z,97693.63
2022-10-01T21:14:16.574Z,97690.44
2022-10-01T21:17:12.053Z,97698.69
2022-10-01T21:19:54.287Z,97698.53
2022-10-01T21:23:14.252Z,97714.38
2022-10-01T21:26:25.436Z,97714.56
2022-10-01T21:29:11.116Z,97717.59
2022-10-01T21:32:15.212Z,97718.38
2022-10-01T21:34:46.351Z,97722.72
2022-10-01T21:37:21.724Z,97721.22
2022-10-01T21:40:19.452Z,97723.09
2022-10-01T21:43:08.872Z,97733.91
2022-10-01T21:45:49.940Z,97738.78
2022-10-01T21:48:30.989Z,97739.91
2022-10-01T21:51:55.281Z,97746.09
2022-10-01T21:55:06.059Z,97756.25
2022-10-01T21:58:23.369Z,97756.03
2022-10-01T22:01:50.082Z,97759.66
2022-10-01T22:04:30.226Z,97766.31
2022-10-01T22:07:17.820Z,97760.09
2022-10-01T22:10:10.733Z,97767.22
2022-10-01T22:12:42.602Z,97778.72
2022-10-01T22:15:31.919Z,97779.06
2022-10-01T22:18:02.245Z,97789.56
2022-10-01T22:20:35.006Z,97799.31
2022-10-01T22:23:09.668Z,97784.63
2022-10-01T22:25:51.338Z,97781.66
2022-10-01T22:28:33.761Z,97773.63
2022-10-01T22:31:04.648Z,97791.53
2022-10-01T22:34:08.090Z,97792.94
2022-10-01T22:36:46.352Z,97793.84
2022-10-01T22:39:27.177Z,97789.31
2022-10-01T22:42:09.100Z,97799.38
2022-10-01T22:44:37.209Z,97806.00
2022-10-01T22:47:19.203Z,97806.59
2022-10-01T22:50:10.962Z,97805.38
2022-10-01T22:53:27.216Z,97793.94
2022-10-01T22:55:56.675Z,97800.03
2022-10-01T22:58:57.830Z,97795.47
2022-10-01T23:02:07.629Z,97792.75
2022-10-01T23:05:10.164Z,97794.00
2022-10-01T23:07:56.415Z,97805.94
2022-10-01T23:11:01.720Z,97803.06
2022-10-01T23:14:17.135Z,97812.00
2022-10-01T23:17:04.739Z,97814.72
2022-10-01T23:19:51.186Z,97805.16
2022-10-01T23:22:37.623Z,97808.41
2022-10-01T23:25:48.796Z,97817.38
2022-10-01T23:28:45.663Z,97830.56
2022-10-01T23:31:44.317Z,97844.59
2022-10-01T23:34:30.022Z,97845.75
2022-10-01T23:37:41.095Z,97844.56
2022-10-01T23:40:16.568Z,97843.31
2022-10-01T23:43:01.128Z,97840.97
2022-10-01T23:46:15.393Z,97841.06
2022-10-01T23:48:44.474Z,97846.84
2022-10-01T23:51:52.256Z,97853.31
2022-10-01T23:54:22.796Z,97859.56
2022-10-01T23:57:28.314Z,97866.19
